Terminal Aerodrome Forecast
Issued by NWS

Home | Current Version | Previous Version | Text Only | Print | Product List | Glossary On
Versions: 1 2 3 4 5 6 7 8 9 10 11 12 13 14 15
000
FTUS44 KOUN 172328
TAFPNC
TAF
KPNC 172328Z 1800/1824 VRB03KT P6SM SCT250
     FM180600 14006KT P6SM BKN250 PROB30 1810/1815 -TSRA BKN030CB=

USA.gov is the U.S. government's official web portal to all federal, state and local government web resources and services.